sensor_id;sensor_type;location;lat;lon;timestamp;temperature;humidity
7216;DHT22;3649;48.798;9.798;2023-06-10T00:01:44;21.50;99.80
7216;DHT22;3649;48.798;9.798;2023-06-10T00:04:15;21.40;99.80
7216;DHT22;3649;48.798;9.798;2023-06-10T00:06:44;21.40;99.80
7216;DHT22;3649;48.798;9.798;2023-06-10T00:09:11;21.40;99.90
7216;DHT22;3649;48.798;9.798;2023-06-10T00:11:41;21.30;99.90
7216;DHT22;3649;48.798;9.798;2023-06-10T00:14:09;21.30;99.90
7216;DHT22;3649;48.798;9.798;2023-06-10T00:16:36;21.30;99.90
7216;DHT22;3649;48.798;9.798;2023-06-10T00:19:04;21.20;99.90
7216;DHT22;3649;48.798;9.798;2023-06-10T00:21:33;21.20;99.90
7216;DHT22;3649;48.798;9.798;2023-06-10T00:24:08;21.20;99.90
7216;DHT22;3649;48.798;9.798;2023-06-10T00:26:39;21.20;99.90
7216;DHT22;3649;48.798;9.798;2023-06-10T00:29:07;21.20;99.90
7216;DHT22;3649;48.798;9.798;2023-06-10T00:31:35;21.10;99.90
7216;DHT22;3649;48.798;9.798;2023-06-10T00:34:03;21.10;99.90
7216;DHT22;3649;48.798;9.798;2023-06-10T00:36:30;21.10;99.90
7216;DHT22;3649;48.798;9.798;2023-06-10T00:38:57;21.10;99.90
7216;DHT22;3649;48.798;9.798;2023-06-10T00:41:24;21.00;99.90
7216;DHT22;3649;48.798;9.798;2023-06-10T00:43:53;21.00;99.90
7216;DHT22;3649;48.798;9.798;2023-06-10T00:46:21;21.00;99.90
7216;DHT22;3649;48.798;9.798;2023-06-10T00:48:49;21.00;99.90
7216;DHT22;3649;48.798;9.798;2023-06-10T00:51:17;21.00;99.90
7216;DHT22;3649;48.798;9.798;2023-06-10T00:53:45;21.00;99.90
7216;DHT22;3649;48.798;9.798;2023-06-10T00:56:13;20.90;99.90
7216;DHT22;3649;48.798;9.798;2023-06-10T00:58:40;20.90;99.90
7216;DHT22;3649;48.798;9.798;2023-06-10T01:01:07;20.80;99.90
7216;DHT22;3649;48.798;9.798;2023-06-10T01:03:37;20.80;99.90
7216;DHT22;3649;48.798;9.798;2023-06-10T01:06:20;20.70;99.90
7216;DHT22;3649;48.798;9.798;2023-06-10T01:08:59;20.70;99.90
7216;DHT22;3649;48.798;9.798;2023-06-10T01:11:36;20.70;99.90
7216;DHT22;3649;48.798;9.798;2023-06-10T01:14:07;20.70;99.90
7216;DHT22;3649;48.798;9.798;2023-06-10T01:16:36;20.70;99.90
7216;DHT22;3649;48.798;9.798;2023-06-10T01:19:04;20.70;99.90
7216;DHT22;3649;48.798;9.798;2023-06-10T01:21:30;20.60;99.90
7216;DHT22;3649;48.798;9.798;2023-06-10T01:24:01;20.60;99.90
7216;DHT22;3649;48.798;9.798;2023-06-10T01:26:30;20.60;99.90
7216;DHT22;3649;48.798;9.798;2023-06-10T01:29:03;20.50;99.90
7216;DHT22;3649;48.798;9.798;2023-06-10T01:31:53;20.50;99.90
7216;DHT22;3649;48.798;9.798;2023-06-10T01:34:23;20.60;99.90
7216;DHT22;3649;48.798;9.798;2023-06-10T01:36:52;20.50;99.90
7216;DHT22;3649;48.798;9.798;2023-06-10T01:39:22;20.60;99.90
7216;DHT22;3649;48.798;9.798;2023-06-10T01:41:51;20.60;99.90
7216;DHT22;3649;48.798;9.798;2023-06-10T01:44:21;20.60;99.90
7216;DHT22;3649;48.798;9.798;2023-06-10T01:46:48;20.60;99.90
7216;DHT22;3649;48.798;9.798;2023-06-10T01:49:15;20.50;99.90
7216;DHT22;3649;48.798;9.798;2023-06-10T01:51:42;20.40;99.90
7216;DHT22;3649;48.798;9.798;2023-06-10T01:54:09;20.40;99.90
7216;DHT22;3649;48.798;9.798;2023-06-10T01:56:36;20.40;99.90
7216;DHT22;3649;48.798;9.798;2023-06-10T01:59:03;20.40;99.90
7216;DHT22;3649;48.798;9.798;2023-06-10T02:01:30;20.40;99.90
7216;DHT22;3649;48.798;9.798;2023-06-10T02:03:57;20.40;99.90
7216;DHT22;3649;48.798;9.798;2023-06-10T02:06:24;20.30;99.90
7216;DHT22;3649;48.798;9.798;2023-06-10T02:08:52;20.30;99.90
7216;DHT22;3649;48.798;9.798;2023-06-10T02:11:19;20.30;99.90
7216;DHT22;3649;48.798;9.798;2023-06-10T02:13:46;20.20;99.90
7216;DHT22;3649;48.798;9.798;2023-06-10T02:16:13;20.20;99.90
7216;DHT22;3649;48.798;9.798;2023-06-10T02:18:41;20.20;99.90
7216;DHT22;3649;48.798;9.798;2023-06-10T02:21:10;20.20;99.90
7216;DHT22;3649;48.798;9.798;2023-06-10T02:23:37;20.20;99.90
7216;DHT22;3649;48.798;9.798;2023-06-10T02:26:04;20.10;99.90
7216;DHT22;3649;48.798;9.798;2023-06-10T02:28:31;20.10;99.90
7216;DHT22;3649;48.798;9.798;2023-06-10T02:30:57;20.00;99.90
7216;DHT22;3649;48.798;9.798;2023-06-10T02:33:25;20.10;99.90
7216;DHT22;3649;48.798;9.798;2023-06-10T02:35:54;20.10;99.90
7216;DHT22;3649;48.798;9.798;2023-06-10T02:38:21;20.10;99.90
7216;DHT22;3649;48.798;9.798;2023-06-10T02:40:48;20.10;99.90
7216;DHT22;3649;48.798;9.798;2023-06-10T02:43:14;20.10;99.90
7216;DHT22;3649;48.798;9.798;2023-06-10T02:45:41;20.00;99.90
7216;DHT22;3649;48.798;9.798;2023-06-10T02:48:08;20.00;99.90
7216;DHT22;3649;48.798;9.798;2023-06-10T02:50:35;20.00;99.90
7216;DHT22;3649;48.798;9.798;2023-06-10T02:53:02;20.00;99.90
7216;DHT22;3649;48.798;9.798;2023-06-10T02:55:29;20.00;99.90
7216;DHT22;3649;48.798;9.798;2023-06-10T02:57:56;20.00;99.90
7216;DHT22;3649;48.798;9.798;2023-06-10T03:00:23;20.00;99.90
7216;DHT22;3649;48.798;9.798;2023-06-10T03:02:50;19.90;99.90
7216;DHT22;3649;48.798;9.798;2023-06-10T03:05:17;19.90;99.90
7216;DHT22;3649;48.798;9.798;2023-06-10T03:07:44;19.80;99.90
7216;DHT22;3649;48.798;9.798;2023-06-10T03:10:13;19.90;99.90
7216;DHT22;3649;48.798;9.798;2023-06-10T03:12:39;19.90;99.90
7216;DHT22;3649;48.798;9.798;2023-06-10T03:15:07;19.90;99.90
7216;DHT22;3649;48.798;9.798;2023-06-10T03:17:34;19.90;99.90
7216;DHT22;3649;48.798;9.798;2023-06-10T03:20:02;19.90;99.90
7216;DHT22;3649;48.798;9.798;2023-06-10T03:22:29;19.80;99.90
7216;DHT22;3649;48.798;9.798;2023-06-10T03:24:57;19.70;99.90
7216;DHT22;3649;48.798;9.798;2023-06-10T03:27:24;19.80;99.90
7216;DHT22;3649;48.798;9.798;2023-06-10T03:29:50;19.70;99.90
7216;DHT22;3649;48.798;9.798;2023-06-10T03:32:17;19.70;99.90
7216;DHT22;3649;48.798;9.798;2023-06-10T03:34:44;19.60;99.90
7216;DHT22;3649;48.798;9.798;2023-06-10T03:37:11;19.70;99.90
7216;DHT22;3649;48.798;9.798;2023-06-10T03:39:38;19.70;99.90
7216;DHT22;3649;48.798;9.798;2023-06-10T03:42:05;19.70;99.90
7216;DHT22;3649;48.798;9.798;2023-06-10T03:44:32;19.70;99.90
7216;DHT22;3649;48.798;9.798;2023-06-10T03:47:00;19.70;99.90
7216;DHT22;3649;48.798;9.798;2023-06-10T03:49:27;19.70;99.90
7216;DHT22;3649;48.798;9.798;2023-06-10T03:51:56;19.70;99.90
7216;DHT22;3649;48.798;9.798;2023-06-10T03:54:23;19.60;99.90
7216;DHT22;3649;48.798;9.798;2023-06-10T03:56:49;19.70;99.90
7216;DHT22;3649;48.798;9.798;2023-06-10T03:59:17;19.70;99.90
7216;DHT22;3649;48.798;9.798;2023-06-10T04:01:44;19.70;99.90
7216;DHT22;3649;48.798;9.798;2023-06-10T04:04:14;19.70;99.90
7216;DHT22;3649;48.798;9.798;2023-06-10T04:06:43;19.70;99.90
7216;DHT22;3649;48.798;9.798;2023-06-10T04:09:13;19.70;99.90
7216;DHT22;3649;48.798;9.798;2023-06-10T04:11:40;19.70;99.90
7216;DHT22;3649;48.798;9.798;2023-06-10T04:14:08;19.70;99.90
7216;DHT22;3649;48.798;9.798;2023-06-10T04:16:34;19.60;99.90
7216;DHT22;3649;48.798;9.798;2023-06-10T04:19:02;19.60;99.90
7216;DHT22;3649;48.798;9.798;2023-06-10T04:21:29;19.70;99.90
7216;DHT22;3649;48.798;9.798;2023-06-10T04:23:56;19.70;99.90
7216;DHT22;3649;48.798;9.798;2023-06-10T04:26:23;19.60;99.90
7216;DHT22;3649;48.798;9.798;2023-06-10T04:28:50;19.60;99.90
7216;DHT22;3649;48.798;9.798;2023-06-10T04:31:17;19.60;99.90
7216;DHT22;3649;48.798;9.798;2023-06-10T04:33:44;19.60;99.90
7216;DHT22;3649;48.798;9.798;2023-06-10T04:36:11;19.60;99.90
7216;DHT22;3649;48.798;9.798;2023-06-10T04:38:38;19.60;99.90
7216;DHT22;3649;48.798;9.798;2023-06-10T04:41:05;19.50;99.90
7216;DHT22;3649;48.798;9.798;2023-06-10T04:43:32;19.60;99.90
7216;DHT22;3649;48.798;9.798;2023-06-10T04:45:59;19.60;99.90
7216;DHT22;3649;48.798;9.798;2023-06-10T04:48:26;19.70;99.90
7216;DHT22;3649;48.798;9.798;2023-06-10T04:50:53;19.70;99.90
7216;DHT22;3649;48.798;9.798;2023-06-10T04:53:20;19.80;99.90
7216;DHT22;3649;48.798;9.798;2023-06-10T04:55:47;19.80;99.90
7216;DHT22;3649;48.798;9.798;2023-06-10T04:58:15;19.90;99.90
7216;DHT22;3649;48.798;9.798;2023-06-10T05:00:42;19.90;99.90
7216;DHT22;3649;48.798;9.798;2023-06-10T05:03:10;19.90;99.90
7216;DHT22;3649;48.798;9.798;2023-06-10T05:05:37;20.00;99.90
7216;DHT22;3649;48.798;9.798;2023-06-10T05:08:04;18.40;99.90
7216;DHT22;3649;48.798;9.798;2023-06-10T05:10:34;20.00;99.90
7216;DHT22;3649;48.798;9.798;2023-06-10T05:13:01;20.10;99.90
7216;DHT22;3649;48.798;9.798;2023-06-10T05:15:30;20.10;99.90
7216;DHT22;3649;48.798;9.798;2023-06-10T05:17:57;20.20;99.90
7216;DHT22;3649;48.798;9.798;2023-06-10T05:20:25;20.10;99.90
7216;DHT22;3649;48.798;9.798;2023-06-10T05:22:53;20.20;99.90
7216;DHT22;3649;48.798;9.798;2023-06-10T05:25:21;20.30;99.90
7216;DHT22;3649;48.798;9.798;2023-06-10T05:27:48;20.40;99.90
7216;DHT22;3649;48.798;9.798;2023-06-10T05:30:15;20.40;99.90
7216;DHT22;3649;48.798;9.798;2023-06-10T05:32:41;20.30;99.90
7216;DHT22;3649;48.798;9.798;2023-06-10T05:35:08;20.50;99.90
7216;DHT22;3649;48.798;9.798;2023-06-10T05:37:36;20.50;99.90
7216;DHT22;3649;48.798;9.798;2023-06-10T05:40:04;20.60;99.90
7216;DHT22;3649;48.798;9.798;2023-06-10T05:42:31;20.70;99.90
7216;DHT22;3649;48.798;9.798;2023-06-10T05:44:58;20.70;99.90
7216;DHT22;3649;48.798;9.798;2023-06-10T05:47:24;20.80;99.90
7216;DHT22;3649;48.798;9.798;2023-06-10T05:49:52;20.90;99.90
7216;DHT22;3649;48.798;9.798;2023-06-10T05:52:18;21.00;99.90
7216;DHT22;3649;48.798;9.798;2023-06-10T05:54:46;21.00;99.90
7216;DHT22;3649;48.798;9.798;2023-06-10T05:57:13;21.10;99.90
7216;DHT22;3649;48.798;9.798;2023-06-10T05:59:40;21.10;99.90
7216;DHT22;3649;48.798;9.798;2023-06-10T06:02:06;21.20;99.90
7216;DHT22;3649;48.798;9.798;2023-06-10T06:04:34;21.30;99.90
7216;DHT22;3649;48.798;9.798;2023-06-10T06:07:01;21.40;99.90
7216;DHT22;3649;48.798;9.798;2023-06-10T06:09:28;21.60;99.90
7216;DHT22;3649;48.798;9.798;2023-06-10T06:11:55;21.70;99.90
7216;DHT22;3649;48.798;9.798;2023-06-10T06:14:22;21.80;99.90
7216;DHT22;3649;48.798;9.798;2023-06-10T06:16:48;21.90;99.90
7216;DHT22;3649;48.798;9.798;2023-06-10T06:19:15;22.00;99.90
7216;DHT22;3649;48.798;9.798;2023-06-10T06:21:42;22.10;99.90
7216;DHT22;3649;48.798;9.798;2023-06-10T06:24:09;22.20;99.90
7216;DHT22;3649;48.798;9.798;2023-06-10T06:26:36;22.20;99.90
7216;DHT22;3649;48.798;9.798;2023-06-10T06:29:03;22.40;99.90
7216;DHT22;3649;48.798;9.798;2023-06-10T06:31:30;22.50;99.90
7216;DHT22;3649;48.798;9.798;2023-06-10T06:33:58;22.50;99.90
7216;DHT22;3649;48.798;9.798;2023-06-10T06:36:26;22.60;99.90
7216;DHT22;3649;48.798;9.798;2023-06-10T06:38:53;22.70;99.90
7216;DHT22;3649;48.798;9.798;2023-06-10T06:41:20;22.80;99.90
7216;DHT22;3649;48.798;9.798;2023-06-10T06:43:48;22.50;99.90
7216;DHT22;3649;48.798;9.798;2023-06-10T06:46:15;23.10;99.90
7216;DHT22;3649;48.798;9.798;2023-06-10T06:48:43;23.40;99.90
7216;DHT22;3649;48.798;9.798;2023-06-10T06:51:10;23.60;99.90
7216;DHT22;3649;48.798;9.798;2023-06-10T06:53:38;23.90;99.90
7216;DHT22;3649;48.798;9.798;2023-06-10T06:56:11;24.10;99.90
7216;DHT22;3649;48.798;9.798;2023-06-10T06:58:38;24.30;99.90
7216;DHT22;3649;48.798;9.798;2023-06-10T07:01:05;24.60;99.90
7216;DHT22;3649;48.798;9.798;2023-06-10T07:03:32;24.70;99.90
7216;DHT22;3649;48.798;9.798;2023-06-10T07:05:59;25.00;99.90
7216;DHT22;3649;48.798;9.798;2023-06-10T07:08:26;25.20;99.70
7216;DHT22;3649;48.798;9.798;2023-06-10T07:10:53;25.30;99.60
7216;DHT22;3649;48.798;9.798;2023-06-10T07:13:20;25.30;99.60
7216;DHT22;3649;48.798;9.798;2023-06-10T07:15:47;25.40;99.60
7216;DHT22;3649;48.798;9.798;2023-06-10T07:18:15;25.50;99.50
7216;DHT22;3649;48.798;9.798;2023-06-10T07:20:42;25.60;99.30
7216;DHT22;3649;48.798;9.798;2023-06-10T07:23:09;25.70;99.30
7216;DHT22;3649;48.798;9.798;2023-06-10T07:25:36;25.80;99.30
7216;DHT22;3649;48.798;9.798;2023-06-10T07:28:03;25.90;99.20
7216;DHT22;3649;48.798;9.798;2023-06-10T07:30:30;26.00;99.10
7216;DHT22;3649;48.798;9.798;2023-06-10T07:32:57;26.00;99.10
7216;DHT22;3649;48.798;9.798;2023-06-10T07:35:24;26.10;98.80
7216;DHT22;3649;48.798;9.798;2023-06-10T07:37:51;26.20;98.70
7216;DHT22;3649;48.798;9.798;2023-06-10T07:40:18;26.20;98.70
7216;DHT22;3649;48.798;9.798;2023-06-10T07:42:44;26.10;98.70
7216;DHT22;3649;48.798;9.798;2023-06-10T07:45:11;26.10;98.30
7216;DHT22;3649;48.798;9.798;2023-06-10T07:47:38;26.10;98.20
7216;DHT22;3649;48.798;9.798;2023-06-10T07:50:05;26.10;98.10
7216;DHT22;3649;48.798;9.798;2023-06-10T07:52:32;26.10;98.20
7216;DHT22;3649;48.798;9.798;2023-06-10T07:54:59;26.20;97.80
7216;DHT22;3649;48.798;9.798;2023-06-10T07:57:26;26.20;97.50
7216;DHT22;3649;48.798;9.798;2023-06-10T07:59:53;26.20;97.30
7216;DHT22;3649;48.798;9.798;2023-06-10T08:02:21;26.30;97.30
7216;DHT22;3649;48.798;9.798;2023-06-10T08:04:51;26.40;97.20
7216;DHT22;3649;48.798;9.798;2023-06-10T08:07:18;26.50;97.10
7216;DHT22;3649;48.798;9.798;2023-06-10T08:09:45;26.50;96.60
7216;DHT22;3649;48.798;9.798;2023-06-10T08:12:12;25.50;96.00
7216;DHT22;3649;48.798;9.798;2023-06-10T08:14:39;26.70;96.50
7216;DHT22;3649;48.798;9.798;2023-06-10T08:17:06;26.80;96.50
7216;DHT22;3649;48.798;9.798;2023-06-10T08:19:33;26.70;96.20
7216;DHT22;3649;48.798;9.798;2023-06-10T08:22:00;26.70;96.30
7216;DHT22;3649;48.798;9.798;2023-06-10T08:24:27;26.80;96.10
7216;DHT22;3649;48.798;9.798;2023-06-10T08:26:54;26.80;96.10
7216;DHT22;3649;48.798;9.798;2023-06-10T08:29:23;26.80;95.90
7216;DHT22;3649;48.798;9.798;2023-06-10T08:31:50;26.70;96.00
7216;DHT22;3649;48.798;9.798;2023-06-10T08:34:17;26.70;95.80
7216;DHT22;3649;48.798;9.798;2023-06-10T08:36:44;26.80;95.90
7216;DHT22;3649;48.798;9.798;2023-06-10T08:39:12;26.70;95.70
7216;DHT22;3649;48.798;9.798;2023-06-10T08:41:43;26.70;95.90
7216;DHT22;3649;48.798;9.798;2023-06-10T08:44:22;26.70;95.90
7216;DHT22;3649;48.798;9.798;2023-06-10T08:46:49;26.70;95.90
7216;DHT22;3649;48.798;9.798;2023-06-10T08:49:18;26.70;96.00
7216;DHT22;3649;48.798;9.798;2023-06-10T08:51:50;26.70;96.00
7216;DHT22;3649;48.798;9.798;2023-06-10T08:54:25;26.80;96.00
7216;DHT22;3649;48.798;9.798;2023-06-10T08:56:55;26.80;96.00
7216;DHT22;3649;48.798;9.798;2023-06-10T08:59:24;26.90;96.00
7216;DHT22;3649;48.798;9.798;2023-06-10T09:01:52;26.90;95.90
7216;DHT22;3649;48.798;9.798;2023-06-10T09:04:20;27.00;95.80
7216;DHT22;3649;48.798;9.798;2023-06-10T09:06:49;26.90;95.80
7216;DHT22;3649;48.798;9.798;2023-06-10T09:09:16;26.90;95.90
7216;DHT22;3649;48.798;9.798;2023-06-10T09:11:44;26.80;96.00
7216;DHT22;3649;48.798;9.798;2023-06-10T09:14:11;26.70;96.00
7216;DHT22;3649;48.798;9.798;2023-06-10T09:16:43;26.60;96.00
7216;DHT22;3649;48.798;9.798;2023-06-10T09:19:13;26.50;96.20
7216;DHT22;3649;48.798;9.798;2023-06-10T09:21:40;26.50;96.70
7216;DHT22;3649;48.798;9.798;2023-06-10T09:24:07;26.50;96.60
7216;DHT22;3649;48.798;9.798;2023-06-10T09:26:34;26.50;96.20
7216;DHT22;3649;48.798;9.798;2023-06-10T09:29:06;26.50;96.40
7216;DHT22;3649;48.798;9.798;2023-06-10T09:31:35;26.50;96.50
7216;DHT22;3649;48.798;9.798;2023-06-10T09:34:14;26.50;96.30
7216;DHT22;3649;48.798;9.798;2023-06-10T09:36:43;26.50;96.30
7216;DHT22;3649;48.798;9.798;2023-06-10T09:39:15;26.30;96.00
7216;DHT22;3649;48.798;9.798;2023-06-10T09:41:46;26.50;96.00
7216;DHT22;3649;48.798;9.798;2023-06-10T09:44:18;26.50;96.10
7216;DHT22;3649;48.798;9.798;2023-06-10T09:46:46;26.50;96.00
7216;DHT22;3649;48.798;9.798;2023-06-10T09:49:14;26.50;95.50
7216;DHT22;3649;48.798;9.798;2023-06-10T09:51:51;26.50;95.50
7216;DHT22;3649;48.798;9.798;2023-06-10T09:54:22;26.50;95.70
7216;DHT22;3649;48.798;9.798;2023-06-10T09:56:51;26.50;95.50
7216;DHT22;3649;48.798;9.798;2023-06-10T09:59:31;26.50;95.70
7216;DHT22;3649;48.798;9.798;2023-06-10T10:02:01;26.50;95.60
7216;DHT22;3649;48.798;9.798;2023-06-10T10:04:28;26.50;95.60
7216;DHT22;3649;48.798;9.798;2023-06-10T10:06:55;26.60;95.70
7216;DHT22;3649;48.798;9.798;2023-06-10T10:09:22;26.60;96.00
7216;DHT22;3649;48.798;9.798;2023-06-10T10:11:49;26.60;96.10
7216;DHT22;3649;48.798;9.798;2023-06-10T10:14:19;26.70;96.10
7216;DHT22;3649;48.798;9.798;2023-06-10T10:16:48;26.60;96.10
7216;DHT22;3649;48.798;9.798;2023-06-10T10:19:22;26.70;96.10
7216;DHT22;3649;48.798;9.798;2023-06-10T10:21:53;26.70;96.10
7216;DHT22;3649;48.798;9.798;2023-06-10T10:24:30;26.60;96.20
7216;DHT22;3649;48.798;9.798;2023-06-10T10:26:59;26.60;96.20
7216;DHT22;3649;48.798;9.798;2023-06-10T10:29:31;26.60;96.20
7216;DHT22;3649;48.798;9.798;2023-06-10T10:32:00;26.60;96.20
7216;DHT22;3649;48.798;9.798;2023-06-10T10:34:42;26.60;96.20
7216;DHT22;3649;48.798;9.798;2023-06-10T10:37:10;26.60;96.10
7216;DHT22;3649;48.798;9.798;2023-06-10T10:39:37;26.60;96.10
7216;DHT22;3649;48.798;9.798;2023-06-10T10:42:05;26.60;96.20
7216;DHT22;3649;48.798;9.798;2023-06-10T10:44:37;26.60;96.30
7216;DHT22;3649;48.798;9.798;2023-06-10T10:47:08;26.50;96.40
7216;DHT22;3649;48.798;9.798;2023-06-10T10:49:37;26.60;96.40
7216;DHT22;3649;48.798;9.798;2023-06-10T10:52:04;26.50;96.50
7216;DHT22;3649;48.798;9.798;2023-06-10T10:54:35;26.50;96.40
7216;DHT22;3649;48.798;9.798;2023-06-10T10:57:21;26.50;96.40
7216;DHT22;3649;48.798;9.798;2023-06-10T10:59:52;26.50;96.20
7216;DHT22;3649;48.798;9.798;2023-06-10T11:05:00;26.50;96.20
7216;DHT22;3649;48.798;9.798;2023-06-10T11:07:31;26.50;96.20
7216;DHT22;3649;48.798;9.798;2023-06-10T11:12:50;26.50;96.30
7216;DHT22;3649;48.798;9.798;2023-06-10T11:15:26;26.50;96.20
7216;DHT22;3649;48.798;9.798;2023-06-10T11:18:19;26.50;96.00
7216;DHT22;3649;48.798;9.798;2023-06-10T11:26:18;26.30;95.50
7216;DHT22;3649;48.798;9.798;2023-06-10T11:33:55;26.30;95.20
7216;DHT22;3649;48.798;9.798;2023-06-10T11:36:23;26.30;95.20
7216;DHT22;3649;48.798;9.798;2023-06-10T11:38:55;26.40;95.30
7216;DHT22;3649;48.798;9.798;2023-06-10T11:41:24;26.30;95.30
7216;DHT22;3649;48.798;9.798;2023-06-10T11:43:53;26.30;95.40
7216;DHT22;3649;48.798;9.798;2023-06-10T11:46:22;26.40;95.30
7216;DHT22;3649;48.798;9.798;2023-06-10T11:48:54;26.40;94.90
7216;DHT22;3649;48.798;9.798;2023-06-10T11:51:21;26.50;95.00
7216;DHT22;3649;48.798;9.798;2023-06-10T11:53:49;26.50;95.00
7216;DHT22;3649;48.798;9.798;2023-06-10T11:56:27;26.50;95.10
7216;DHT22;3649;48.798;9.798;2023-06-10T11:59:02;26.50;95.10
7216;DHT22;3649;48.798;9.798;2023-06-10T12:01:35;26.60;94.50
7216;DHT22;3649;48.798;9.798;2023-06-10T12:04:08;26.60;94.60
7216;DHT22;3649;48.798;9.798;2023-06-10T12:06:43;26.70;94.60
7216;DHT22;3649;48.798;9.798;2023-06-10T12:09:18;26.70;94.80
7216;DHT22;3649;48.798;9.798;2023-06-10T12:12:01;26.70;94.60
7216;DHT22;3649;48.798;9.798;2023-06-10T12:20:04;26.70;94.70
7216;DHT22;3649;48.798;9.798;2023-06-10T12:22:39;26.70;94.60
7216;DHT22;3649;48.798;9.798;2023-06-10T12:25:07;26.70;94.10
7216;DHT22;3649;48.798;9.798;2023-06-10T12:27:35;26.70;94.20
7216;DHT22;3649;48.798;9.798;2023-06-10T12:30:04;26.70;94.30
7216;DHT22;3649;48.798;9.798;2023-06-10T12:32:36;26.70;94.20
7216;DHT22;3649;48.798;9.798;2023-06-10T12:35:05;26.70;94.40
7216;DHT22;3649;48.798;9.798;2023-06-10T12:37:34;26.70;94.40
7216;DHT22;3649;48.798;9.798;2023-06-10T12:40:02;26.70;94.00
7216;DHT22;3649;48.798;9.798;2023-06-10T12:42:30;26.80;93.40
7216;DHT22;3649;48.798;9.798;2023-06-10T12:45:01;26.90;93.10
7216;DHT22;3649;48.798;9.798;2023-06-10T12:47:32;27.00;93.20
7216;DHT22;3649;48.798;9.798;2023-06-10T12:50:02;27.00;93.50
7216;DHT22;3649;48.798;9.798;2023-06-10T12:52:30;27.10;93.80
7216;DHT22;3649;48.798;9.798;2023-06-10T12:54:57;27.00;94.00
7216;DHT22;3649;48.798;9.798;2023-06-10T12:57:24;27.00;94.40
7216;DHT22;3649;48.798;9.798;2023-06-10T12:59:51;27.00;94.50
7216;DHT22;3649;48.798;9.798;2023-06-10T13:02:23;26.90;94.30
7216;DHT22;3649;48.798;9.798;2023-06-10T13:04:51;26.90;94.10
7216;DHT22;3649;48.798;9.798;2023-06-10T13:07:18;27.00;94.10
7216;DHT22;3649;48.798;9.798;2023-06-10T13:09:45;27.10;94.30
7216;DHT22;3649;48.798;9.798;2023-06-10T13:12:15;27.10;94.40
7216;DHT22;3649;48.798;9.798;2023-06-10T13:14:52;27.10;94.40
7216;DHT22;3649;48.798;9.798;2023-06-10T13:17:20;27.10;93.50
7216;DHT22;3649;48.798;9.798;2023-06-10T13:19:47;27.10;93.60
7216;DHT22;3649;48.798;9.798;2023-06-10T13:22:15;27.10;93.90
7216;DHT22;3649;48.798;9.798;2023-06-10T13:24:42;27.10;94.10
7216;DHT22;3649;48.798;9.798;2023-06-10T13:27:10;27.10;94.20
7216;DHT22;3649;48.798;9.798;2023-06-10T13:29:37;27.10;94.40
7216;DHT22;3649;48.798;9.798;2023-06-10T13:32:04;27.20;94.20
7216;DHT22;3649;48.798;9.798;2023-06-10T13:34:31;27.40;94.30
7216;DHT22;3649;48.798;9.798;2023-06-10T13:36:58;27.40;94.00
7216;DHT22;3649;48.798;9.798;2023-06-10T13:39:25;27.40;94.10
7216;DHT22;3649;48.798;9.798;2023-06-10T13:41:52;27.30;94.30
7216;DHT22;3649;48.798;9.798;2023-06-10T13:44:19;27.30;94.20
7216;DHT22;3649;48.798;9.798;2023-06-10T13:46:46;27.30;94.20
7216;DHT22;3649;48.798;9.798;2023-06-10T13:49:15;27.40;94.30
7216;DHT22;3649;48.798;9.798;2023-06-10T13:51:42;27.40;94.50
7216;DHT22;3649;48.798;9.798;2023-06-10T13:54:09;27.40;94.30
7216;DHT22;3649;48.798;9.798;2023-06-10T13:56:37;27.40;94.00
7216;DHT22;3649;48.798;9.798;2023-06-10T13:59:05;27.40;93.90
7216;DHT22;3649;48.798;9.798;2023-06-10T14:01:32;27.50;93.90
7216;DHT22;3649;48.798;9.798;2023-06-10T14:03:59;27.40;94.00
7216;DHT22;3649;48.798;9.798;2023-06-10T14:06:27;27.40;94.10
7216;DHT22;3649;48.798;9.798;2023-06-10T14:08:54;27.40;94.30
7216;DHT22;3649;48.798;9.798;2023-06-10T14:11:23;27.40;94.20
7216;DHT22;3649;48.798;9.798;2023-06-10T14:13:50;27.40;94.20
7216;DHT22;3649;48.798;9.798;2023-06-10T14:16:17;27.30;93.70
7216;DHT22;3649;48.798;9.798;2023-06-10T14:18:44;27.30;93.90
7216;DHT22;3649;48.798;9.798;2023-06-10T14:21:11;27.30;93.50
7216;DHT22;3649;48.798;9.798;2023-06-10T14:23:38;27.30;93.00
7216;DHT22;3649;48.798;9.798;2023-06-10T14:26:06;27.30;93.00
7216;DHT22;3649;48.798;9.798;2023-06-10T14:28:33;27.40;93.10
7216;DHT22;3649;48.798;9.798;2023-06-10T14:31:00;27.50;92.80
7216;DHT22;3649;48.798;9.798;2023-06-10T14:33:27;27.50;92.70
7216;DHT22;3649;48.798;9.798;2023-06-10T14:35:54;27.50;92.60
7216;DHT22;3649;48.798;9.798;2023-06-10T14:38:21;27.40;92.70
7216;DHT22;3649;48.798;9.798;2023-06-10T14:40:48;27.40;92.60
7216;DHT22;3649;48.798;9.798;2023-06-10T14:43:15;27.40;92.70
7216;DHT22;3649;48.798;9.798;2023-06-10T14:45:42;27.40;92.60
7216;DHT22;3649;48.798;9.798;2023-06-10T14:48:09;27.40;92.70
7216;DHT22;3649;48.798;9.798;2023-06-10T14:50:37;27.40;93.00
7216;DHT22;3649;48.798;9.798;2023-06-10T14:53:04;27.40;93.20
7216;DHT22;3649;48.798;9.798;2023-06-10T14:55:31;27.50;93.20
7216;DHT22;3649;48.798;9.798;2023-06-10T14:57:58;27.50;93.30
7216;DHT22;3649;48.798;9.798;2023-06-10T15:00:25;27.50;93.30
7216;DHT22;3649;48.798;9.798;2023-06-10T15:02:52;27.40;92.80
7216;DHT22;3649;48.798;9.798;2023-06-10T15:05:22;27.50;92.90
7216;DHT22;3649;48.798;9.798;2023-06-10T15:07:49;27.50;93.10
7216;DHT22;3649;48.798;9.798;2023-06-10T15:10:16;27.50;92.90
7216;DHT22;3649;48.798;9.798;2023-06-10T15:12:45;27.50;92.90
7216;DHT22;3649;48.798;9.798;2023-06-10T15:15:12;27.50;93.00
7216;DHT22;3649;48.798;9.798;2023-06-10T15:17:39;27.50;93.10
7216;DHT22;3649;48.798;9.798;2023-06-10T15:20:06;27.50;92.90
7216;DHT22;3649;48.798;9.798;2023-06-10T15:22:33;27.50;93.20
7216;DHT22;3649;48.798;9.798;2023-06-10T15:25:02;27.50;93.20
7216;DHT22;3649;48.798;9.798;2023-06-10T15:27:49;27.50;93.10
7216;DHT22;3649;48.798;9.798;2023-06-10T15:30:16;27.50;93.20
7216;DHT22;3649;48.798;9.798;2023-06-10T15:32:42;27.50;93.20
7216;DHT22;3649;48.798;9.798;2023-06-10T15:35:09;27.60;93.20
7216;DHT22;3649;48.798;9.798;2023-06-10T15:37:37;27.50;93.10
7216;DHT22;3649;48.798;9.798;2023-06-10T15:40:05;27.60;93.10
7216;DHT22;3649;48.798;9.798;2023-06-10T15:42:32;27.60;93.20
7216;DHT22;3649;48.798;9.798;2023-06-10T15:44:58;27.50;93.20
7216;DHT22;3649;48.798;9.798;2023-06-10T15:47:26;27.50;93.30
7216;DHT22;3649;48.798;9.798;2023-06-10T15:49:53;27.50;93.30
7216;DHT22;3649;48.798;9.798;2023-06-10T15:52:19;27.40;93.40
7216;DHT22;3649;48.798;9.798;2023-06-10T15:54:46;27.50;93.30
7216;DHT22;3649;48.798;9.798;2023-06-10T15:57:14;27.50;93.40
7216;DHT22;3649;48.798;9.798;2023-06-10T15:59:41;27.50;93.70
7216;DHT22;3649;48.798;9.798;2023-06-10T16:02:07;27.50;93.80
7216;DHT22;3649;48.798;9.798;2023-06-10T16:04:34;27.40;93.80
7216;DHT22;3649;48.798;9.798;2023-06-10T16:07:01;27.50;93.50
7216;DHT22;3649;48.798;9.798;2023-06-10T16:09:28;27.50;93.60
7216;DHT22;3649;48.798;9.798;2023-06-10T16:11:55;27.40;93.70
7216;DHT22;3649;48.798;9.798;2023-06-10T16:14:22;27.40;93.90
7216;DHT22;3649;48.798;9.798;2023-06-10T16:16:49;28.80;94.90
7216;DHT22;3649;48.798;9.798;2023-06-10T16:19:16;27.40;94.40
7216;DHT22;3649;48.798;9.798;2023-06-10T16:21:43;27.40;94.40
7216;DHT22;3649;48.798;9.798;2023-06-10T16:24:10;27.40;94.50
7216;DHT22;3649;48.798;9.798;2023-06-10T16:26:38;27.40;94.50
7216;DHT22;3649;48.798;9.798;2023-06-10T16:29:05;27.50;94.50
7216;DHT22;3649;48.798;9.798;2023-06-10T16:31:32;27.40;94.40